Terminal Aerodrome Forecast
Issued by NWS

Home | Current Version | Previous Version | Text Only | Print | Product List | Glossary On
Versions: 1 2 3 4 5 6 7 8 9 10 11 12
135
FTUS43 KGRR 301140
TAFJXN
TAF
KJXN 301140Z 3012/0112 26006KT P6SM SCT070
     FM010600 18005KT P6SM OVC100
     FM010800 20007KT P6SM OVC025
     FM010900 20008KT P6SM -RA OVC015
     FM011100 25007KT 4SM -SHRA OVC015=

USA.gov is the U.S. government's official web portal to all federal, state and local government web resources and services.